DLH37F LEPA-EDDF
Flight info
| Callsign | DLH37F |
|---|---|
| Flight time | 1h 51m |
| Altitude | 34000 |
| Route | MEROS DCT LAPIT DCT CHELY DCT LUMAS DCT SOSUR DCT SECON DCT ODIXU DCT MAXIR DCT LUSOL DCT BODRU DCT OKTET DCT IRMAR DCT KINES DCT VANAS DCT ESOKO DCT GODRA DCT LADOL T163 EMPAX EMPAX5B |
| Aircraft | A321/M-SDE2E3FGIJ1LORWXYZ/HB1 |
Departure
| Time | 2026-05-05 14:18 |
|---|---|
| Airport | Palma de Mallorca Airport (LEPA) |
Arrival
| Time | 2026-05-05 16:09 |
|---|---|
| Airport | Frankfurt Main Airport (EDDF) |
| Time | Latitude | Longitude | Altitude | Speed | Heading |
|---|---|---|---|---|---|
| 2026-05-05 13:18 | 39.54696 | 2.73394 | 38 ft | 0 kts | 239° |
| 2026-05-05 14:06 | 39.54703 | 2.73410 | 38 ft | 4 kts | 240° |
| 2026-05-05 14:06 | 39.54714 | 2.73435 | 36 ft | 4 kts | 247° |
| 2026-05-05 14:06 | 39.54718 | 2.73466 | 35 ft | 4 kts | 292° |
| 2026-05-05 14:06 | 39.54703 | 2.73492 | 35 ft | 3 kts | 328° |
| 2026-05-05 14:07 | 39.54687 | 2.73505 | 36 ft | 0 kts | 328° |
| 2026-05-05 14:09 | 39.54693 | 2.73500 | 35 ft | 3 kts | 328° |
| 2026-05-05 14:09 | 39.54714 | 2.73483 | 35 ft | 5 kts | 328° |
| 2026-05-05 14:09 | 39.54755 | 2.73472 | 38 ft | 7 kts | 16° |
| 2026-05-05 14:10 | 39.54768 | 2.73524 | 38 ft | 7 kts | 113° |
| 2026-05-05 14:10 | 39.54728 | 2.73563 | 38 ft | 8 kts | 149° |
| 2026-05-05 14:10 | 39.54678 | 2.73602 | 38 ft | 9 kts | 148° |
| 2026-05-05 14:10 | 39.54661 | 2.73673 | 38 ft | 9 kts | 69° |
| 2026-05-05 14:11 | 39.54696 | 2.73751 | 38 ft | 10 kts | 59° |
| 2026-05-05 14:11 | 39.54735 | 2.73835 | 38 ft | 11 kts | 59° |
| 2026-05-05 14:11 | 39.54766 | 2.73897 | 38 ft | 0 kts | 56° |
| 2026-05-05 14:11 | 39.54767 | 2.73897 | 38 ft | 1 kts | 56° |
| 2026-05-05 14:12 | 39.54776 | 2.73916 | 38 ft | 4 kts | 56° |
| 2026-05-05 14:12 | 39.54797 | 2.73958 | 38 ft | 7 kts | 57° |
| 2026-05-05 14:12 | 39.54842 | 2.73996 | 38 ft | 9 kts | 356° |
| 2026-05-05 14:12 | 39.54900 | 2.73960 | 38 ft | 10 kts | 336° |
| 2026-05-05 14:13 | 39.54942 | 2.73992 | 38 ft | 7 kts | 57° |
| 2026-05-05 14:13 | 39.54985 | 2.74001 | 38 ft | 8 kts | 332° |
| 2026-05-05 14:13 | 39.55042 | 2.73955 | 37 ft | 12 kts | 328° |
| 2026-05-05 14:13 | 39.55122 | 2.73893 | 38 ft | 15 kts | 329° |
| 2026-05-05 14:14 | 39.55221 | 2.73815 | 38 ft | 18 kts | 328° |
| 2026-05-05 14:14 | 39.55338 | 2.73722 | 38 ft | 21 kts | 329° |
| 2026-05-05 14:14 | 39.55469 | 2.73619 | 38 ft | 22 kts | 329° |
| 2026-05-05 14:14 | 39.55576 | 2.73534 | 38 ft | 15 kts | 328° |
| 2026-05-05 14:15 | 39.55656 | 2.73514 | 37 ft | 11 kts | 34° |
| 2026-05-05 14:15 | 39.55706 | 2.73608 | 38 ft | 14 kts | 58° |
| 2026-05-05 14:15 | 39.55764 | 2.73731 | 38 ft | 18 kts | 58° |
| 2026-05-05 14:15 | 39.55833 | 2.73878 | 38 ft | 21 kts | 58° |
| 2026-05-05 14:16 | 39.55913 | 2.74048 | 37 ft | 23 kts | 58° |
| 2026-05-05 14:16 | 39.55998 | 2.74228 | 38 ft | 24 kts | 58° |
| 2026-05-05 14:16 | 39.56083 | 2.74406 | 38 ft | 18 kts | 56° |
| 2026-05-05 14:16 | 39.56177 | 2.74439 | 36 ft | 15 kts | 333° |
| 2026-05-05 14:17 | 39.56252 | 2.74355 | 38 ft | 12 kts | 291° |
| 2026-05-05 14:17 | 39.56220 | 2.74250 | 38 ft | 17 kts | 238° |
| 2026-05-05 14:17 | 39.56054 | 2.73900 | 38 ft | 80 kts | 238° |
| 2026-05-05 14:17 | 39.55646 | 2.73037 | 39 ft | 142 kts | 238° |
| 2026-05-05 14:18 | 39.55066 | 2.71802 | 327 ft | 165 kts | 238° |
| 2026-05-05 14:18 | 39.54479 | 2.70543 | 1093 ft | 164 kts | 238° |
| 2026-05-05 14:18 | 39.53882 | 2.69288 | 1869 ft | 163 kts | 237° |
| 2026-05-05 14:18 | 39.53255 | 2.67969 | 2185 ft | 184 kts | 237° |
| 2026-05-05 14:19 | 39.52545 | 2.66492 | 2496 ft | 200 kts | 238° |
| 2026-05-05 14:19 | 39.51794 | 2.64931 | 2944 ft | 207 kts | 238° |
| 2026-05-05 14:19 | 39.51024 | 2.63337 | 3464 ft | 211 kts | 239° |
| 2026-05-05 14:19 | 39.50248 | 2.61702 | 3993 ft | 215 kts | 238° |
| 2026-05-05 14:20 | 39.49132 | 2.60300 | 4199 ft | 241 kts | 211° |
| 2026-05-05 14:20 | 39.47571 | 2.59295 | 4587 ft | 257 kts | 208° |
| 2026-05-05 14:20 | 39.45945 | 2.58252 | 5263 ft | 262 kts | 209° |
| 2026-05-05 14:20 | 39.44325 | 2.57212 | 5969 ft | 265 kts | 207° |
| 2026-05-05 14:21 | 39.42508 | 2.56642 | 6665 ft | 272 kts | 179° |
| 2026-05-05 14:21 | 39.40718 | 2.57409 | 7298 ft | 283 kts | 148° |
| 2026-05-05 14:21 | 39.39231 | 2.59119 | 7995 ft | 289 kts | 139° |
| 2026-05-05 14:21 | 39.37797 | 2.60947 | 8711 ft | 291 kts | 139° |
| 2026-05-05 14:22 | 39.36360 | 2.62800 | 9431 ft | 292 kts | 139° |
| 2026-05-05 14:22 | 39.34915 | 2.64656 | 10087 ft | 295 kts | 140° |
| 2026-05-05 14:22 | 39.33378 | 2.66530 | 10270 ft | 314 kts | 141° |
| 2026-05-05 14:22 | 39.31718 | 2.68506 | 10375 ft | 334 kts | 141° |
| 2026-05-05 14:23 | 39.29968 | 2.70592 | 10608 ft | 348 kts | 141° |
| 2026-05-05 14:23 | 39.28220 | 2.72800 | 11102 ft | 357 kts | 133° |
| 2026-05-05 14:23 | 39.27041 | 2.75665 | 11625 ft | 371 kts | 108° |
| 2026-05-05 14:23 | 39.26784 | 2.79018 | 12159 ft | 380 kts | 93° |
| 2026-05-05 14:24 | 39.26766 | 2.82446 | 12705 ft | 384 kts | 92° |
| 2026-05-05 14:24 | 39.26796 | 2.85907 | 13242 ft | 389 kts | 88° |
| 2026-05-05 14:24 | 39.27230 | 2.89368 | 13758 ft | 395 kts | 76° |
| 2026-05-05 14:24 | 39.28178 | 2.92721 | 14230 ft | 400 kts | 64° |
| 2026-05-05 14:25 | 39.29535 | 2.95872 | 14695 ft | 404 kts | 60° |
| 2026-05-05 14:25 | 39.30945 | 2.99028 | 15182 ft | 407 kts | 60° |
| 2026-05-05 14:25 | 39.32360 | 3.02212 | 15674 ft | 411 kts | 60° |
| 2026-05-05 14:25 | 39.33783 | 3.05429 | 16122 ft | 415 kts | 60° |
| 2026-05-05 14:26 | 39.35220 | 3.08677 | 16627 ft | 417 kts | 60° |
| 2026-05-05 14:26 | 39.36662 | 3.11940 | 17114 ft | 420 kts | 60° |
| 2026-05-05 14:26 | 39.38116 | 3.15228 | 17579 ft | 423 kts | 60° |
| 2026-05-05 14:26 | 39.39583 | 3.18545 | 18049 ft | 426 kts | 60° |
| 2026-05-05 14:27 | 39.41060 | 3.21884 | 18468 ft | 430 kts | 60° |
| 2026-05-05 14:27 | 39.42550 | 3.25256 | 18833 ft | 433 kts | 60° |
| 2026-05-05 14:27 | 39.44061 | 3.28643 | 19200 ft | 437 kts | 59° |
| 2026-05-05 14:27 | 39.45085 | 3.30890 | 19448 ft | 439 kts | 59° |
| 2026-05-05 14:28 | 39.46660 | 3.34290 | 19798 ft | 442 kts | 58° |
| 2026-05-05 14:28 | 39.48257 | 3.37715 | 20151 ft | 446 kts | 58° |
| 2026-05-05 14:28 | 39.49862 | 3.41165 | 20503 ft | 449 kts | 58° |
| 2026-05-05 14:28 | 39.52002 | 3.45784 | 20980 ft | 454 kts | 59° |
| 2026-05-05 14:29 | 39.53623 | 3.49307 | 21322 ft | 457 kts | 59° |
| 2026-05-05 14:29 | 39.54722 | 3.51708 | 21548 ft | 460 kts | 59° |
| 2026-05-05 14:29 | 39.56359 | 3.55291 | 21875 ft | 463 kts | 59° |
| 2026-05-05 14:29 | 39.58003 | 3.58897 | 22209 ft | 467 kts | 59° |
| 2026-05-05 14:30 | 39.59657 | 3.62530 | 22538 ft | 470 kts | 59° |
| 2026-05-05 14:30 | 39.61325 | 3.66196 | 22869 ft | 473 kts | 59° |
| 2026-05-05 14:30 | 39.63000 | 3.69882 | 23207 ft | 476 kts | 59° |
| 2026-05-05 14:30 | 39.64685 | 3.73595 | 23523 ft | 479 kts | 59° |
| 2026-05-05 14:31 | 39.66361 | 3.77288 | 23792 ft | 482 kts | 59° |
| 2026-05-05 14:31 | 39.68066 | 3.81045 | 24096 ft | 484 kts | 59° |
| 2026-05-05 14:31 | 39.69778 | 3.84819 | 24406 ft | 486 kts | 59° |
| 2026-05-05 14:31 | 39.71497 | 3.88613 | 24715 ft | 488 kts | 59° |
| 2026-05-05 14:32 | 39.73219 | 3.92417 | 25012 ft | 490 kts | 59° |
| 2026-05-05 14:32 | 39.74951 | 3.96245 | 25324 ft | 492 kts | 59° |
| 2026-05-05 14:32 | 39.76686 | 4.00086 | 25607 ft | 494 kts | 60° |
| 2026-05-05 14:32 | 39.78425 | 4.03949 | 25889 ft | 496 kts | 60° |
| 2026-05-05 14:33 | 39.80171 | 4.07837 | 26173 ft | 498 kts | 60° |
| 2026-05-05 14:33 | 39.81950 | 4.11713 | 26447 ft | 501 kts | 56° |
| 2026-05-05 14:33 | 39.84096 | 4.15279 | 26711 ft | 501 kts | 45° |
| 2026-05-05 14:33 | 39.86657 | 4.18356 | 26974 ft | 501 kts | 35° |
| 2026-05-05 14:34 | 39.89548 | 4.20853 | 27218 ft | 498 kts | 25° |
| 2026-05-05 14:34 | 39.92688 | 4.22710 | 27479 ft | 494 kts | 14° |
| 2026-05-05 14:34 | 39.95942 | 4.23878 | 27760 ft | 489 kts | 5° |
| 2026-05-05 14:34 | 39.99292 | 4.24658 | 28029 ft | 490 kts | 4° |
| 2026-05-05 14:35 | 40.02655 | 4.25437 | 28276 ft | 492 kts | 4° |
| 2026-05-05 14:35 | 40.06038 | 4.26230 | 28524 ft | 495 kts | 4° |
| 2026-05-05 14:35 | 40.09430 | 4.27028 | 28759 ft | 497 kts | 4° |
| 2026-05-05 14:35 | 40.12836 | 4.27829 | 29002 ft | 499 kts | 4° |
| 2026-05-05 14:36 | 40.16260 | 4.28636 | 29233 ft | 501 kts | 4° |
| 2026-05-05 14:36 | 40.19693 | 4.29446 | 29471 ft | 503 kts | 4° |
| 2026-05-05 14:36 | 40.23146 | 4.30265 | 29683 ft | 505 kts | 4° |
| 2026-05-05 14:36 | 40.26605 | 4.31089 | 29890 ft | 506 kts | 4° |
| 2026-05-05 14:37 | 40.30075 | 4.31915 | 30070 ft | 508 kts | 4° |
| 2026-05-05 14:37 | 40.33558 | 4.32743 | 30228 ft | 510 kts | 4° |
| 2026-05-05 14:37 | 40.37048 | 4.33572 | 30451 ft | 509 kts | 4° |
| 2026-05-05 14:37 | 40.40533 | 4.34401 | 30711 ft | 509 kts | 4° |
| 2026-05-05 14:38 | 40.44027 | 4.35231 | 30875 ft | 511 kts | 4° |
| 2026-05-05 14:38 | 40.47530 | 4.36062 | 31063 ft | 512 kts | 4° |
| 2026-05-05 14:38 | 40.51035 | 4.36895 | 31277 ft | 512 kts | 4° |
| 2026-05-05 14:38 | 40.54537 | 4.37731 | 31495 ft | 512 kts | 4° |
| 2026-05-05 14:39 | 40.58044 | 4.38572 | 31712 ft | 512 kts | 4° |
| 2026-05-05 14:39 | 40.61499 | 4.39400 | 31931 ft | 512 kts | 4° |
| 2026-05-05 14:39 | 40.65003 | 4.40237 | 32154 ft | 512 kts | 4° |
| 2026-05-05 14:39 | 40.68507 | 4.41075 | 32371 ft | 511 kts | 4° |
| 2026-05-05 14:40 | 40.72006 | 4.41917 | 32585 ft | 511 kts | 4° |
| 2026-05-05 14:40 | 40.75507 | 4.42761 | 32806 ft | 511 kts | 4° |
| 2026-05-05 14:40 | 40.79004 | 4.43604 | 33023 ft | 511 kts | 4° |
| 2026-05-05 14:40 | 40.82503 | 4.44448 | 33257 ft | 511 kts | 4° |
| 2026-05-05 14:41 | 40.86003 | 4.45294 | 33459 ft | 511 kts | 4° |
| 2026-05-05 14:41 | 40.89504 | 4.46139 | 33653 ft | 512 kts | 4° |
| 2026-05-05 14:41 | 40.93006 | 4.46983 | 33848 ft | 512 kts | 4° |
| 2026-05-05 14:41 | 40.96507 | 4.47830 | 33919 ft | 510 kts | 4° |
| 2026-05-05 14:42 | 41.03456 | 4.49519 | 33921 ft | 506 kts | 4° |
| 2026-05-05 14:42 | 41.10391 | 4.51203 | 33922 ft | 507 kts | 4° |
| 2026-05-05 14:43 | 41.17338 | 4.52896 | 33922 ft | 508 kts | 4° |
| 2026-05-05 14:43 | 41.24294 | 4.54592 | 33923 ft | 508 kts | 4° |
| 2026-05-05 14:44 | 41.31251 | 4.56289 | 33942 ft | 509 kts | 4° |
| 2026-05-05 14:44 | 41.38215 | 4.57998 | 33908 ft | 509 kts | 4° |
| 2026-05-05 14:45 | 41.45178 | 4.59712 | 33927 ft | 509 kts | 4° |
| 2026-05-05 14:45 | 41.52142 | 4.61431 | 33959 ft | 509 kts | 4° |
| 2026-05-05 14:46 | 41.59120 | 4.63156 | 33944 ft | 510 kts | 4° |
| 2026-05-05 14:46 | 41.66098 | 4.64878 | 33942 ft | 510 kts | 4° |
| 2026-05-05 14:47 | 41.73076 | 4.66636 | 33926 ft | 512 kts | 7° |
| 2026-05-05 14:47 | 41.79962 | 4.69270 | 33918 ft | 515 kts | 11° |
| 2026-05-05 14:48 | 41.86848 | 4.72000 | 33920 ft | 516 kts | 11° |
| 2026-05-05 14:48 | 41.93739 | 4.74739 | 33941 ft | 517 kts | 11° |
| 2026-05-05 14:49 | 42.00643 | 4.77492 | 33935 ft | 518 kts | 11° |
| 2026-05-05 14:49 | 42.07505 | 4.80228 | 33935 ft | 518 kts | 11° |
| 2026-05-05 14:50 | 42.14415 | 4.82983 | 33969 ft | 518 kts | 10° |
| 2026-05-05 14:50 | 42.21332 | 4.85756 | 33951 ft | 519 kts | 11° |
| 2026-05-05 14:51 | 42.28257 | 4.88542 | 33948 ft | 519 kts | 11° |
| 2026-05-05 14:51 | 42.35184 | 4.91326 | 33959 ft | 519 kts | 11° |
| 2026-05-05 14:52 | 42.42111 | 4.94115 | 33950 ft | 520 kts | 11° |
| 2026-05-05 14:52 | 42.49052 | 4.96919 | 33913 ft | 520 kts | 11° |
| 2026-05-05 14:53 | 42.55989 | 4.99732 | 33955 ft | 520 kts | 11° |
| 2026-05-05 14:53 | 42.62931 | 5.02506 | 33954 ft | 520 kts | 10° |
| 2026-05-05 14:54 | 42.69876 | 5.05233 | 33950 ft | 520 kts | 10° |
| 2026-05-05 14:54 | 42.76808 | 5.08066 | 33946 ft | 523 kts | 16° |
| 2026-05-05 14:55 | 42.83170 | 5.12885 | 33947 ft | 533 kts | 36° |
| 2026-05-05 14:55 | 42.88372 | 5.20069 | 33944 ft | 534 kts | 53° |
| 2026-05-05 14:56 | 42.92920 | 5.28077 | 33968 ft | 534 kts | 53° |
| 2026-05-05 14:56 | 42.97464 | 5.36106 | 33918 ft | 534 kts | 53° |
| 2026-05-05 14:57 | 43.01992 | 5.44143 | 33935 ft | 534 kts | 53° |
| 2026-05-05 14:57 | 43.06516 | 5.52195 | 33941 ft | 534 kts | 53° |
| 2026-05-05 14:58 | 43.11068 | 5.60229 | 33973 ft | 534 kts | 51° |
| 2026-05-05 14:58 | 43.15928 | 5.67920 | 33965 ft | 534 kts | 47° |
| 2026-05-05 14:59 | 43.20982 | 5.75385 | 33933 ft | 534 kts | 46° |
| 2026-05-05 14:59 | 43.25997 | 5.82907 | 33944 ft | 535 kts | 47° |
| 2026-05-05 15:00 | 43.30092 | 5.89253 | 33971 ft | 534 kts | 49° |
| 2026-05-05 15:00 | 43.36104 | 5.97818 | 33954 ft | 531 kts | 35° |
| 2026-05-05 15:01 | 43.42443 | 6.02771 | 33940 ft | 520 kts | 15° |
| 2026-05-05 15:01 | 43.49355 | 6.05015 | 33964 ft | 504 kts | 357° |
| 2026-05-05 15:02 | 43.56278 | 6.05725 | 33953 ft | 502 kts | 356° |
| 2026-05-05 15:02 | 43.63243 | 6.06436 | 33952 ft | 502 kts | 356° |
| 2026-05-05 15:03 | 43.70203 | 6.07141 | 33961 ft | 501 kts | 356° |
| 2026-05-05 15:03 | 43.77145 | 6.08508 | 33964 ft | 512 kts | 10° |
| 2026-05-05 15:04 | 43.83791 | 6.12339 | 33941 ft | 521 kts | 21° |
| 2026-05-05 15:04 | 43.90298 | 6.16799 | 33973 ft | 521 kts | 22° |
| 2026-05-05 15:05 | 44.00039 | 6.23461 | 33971 ft | 519 kts | 22° |
| 2026-05-05 15:06 | 44.06513 | 6.27898 | 33991 ft | 518 kts | 22° |
| 2026-05-05 15:06 | 44.12940 | 6.32318 | 33962 ft | 514 kts | 22° |
| 2026-05-05 15:07 | 44.19345 | 6.36727 | 33958 ft | 513 kts | 22° |
| 2026-05-05 15:07 | 44.25747 | 6.41149 | 33981 ft | 514 kts | 22° |
| 2026-05-05 15:08 | 44.32146 | 6.45578 | 33973 ft | 513 kts | 22° |
| 2026-05-05 15:08 | 44.38494 | 6.49983 | 33950 ft | 512 kts | 22° |
| 2026-05-05 15:09 | 44.44877 | 6.54422 | 33977 ft | 513 kts | 22° |
| 2026-05-05 15:09 | 44.51253 | 6.58868 | 33968 ft | 512 kts | 22° |
| 2026-05-05 15:10 | 44.57618 | 6.63314 | 33967 ft | 511 kts | 22° |
| 2026-05-05 15:10 | 44.63977 | 6.67767 | 33957 ft | 511 kts | 22° |
| 2026-05-05 15:11 | 44.70337 | 6.72241 | 33963 ft | 511 kts | 23° |
| 2026-05-05 15:11 | 44.76752 | 6.76490 | 33961 ft | 506 kts | 14° |
| 2026-05-05 15:12 | 44.83528 | 6.78537 | 33975 ft | 493 kts | 357° |
| 2026-05-05 15:12 | 44.90287 | 6.78352 | 33962 ft | 484 kts | 350° |
| 2026-05-05 15:13 | 44.97018 | 6.77905 | 33967 ft | 484 kts | 350° |
| 2026-05-05 15:13 | 45.03739 | 6.77468 | 33961 ft | 484 kts | 350° |
| 2026-05-05 15:14 | 45.10463 | 6.77026 | 33959 ft | 483 kts | 350° |
| 2026-05-05 15:14 | 45.17146 | 6.76594 | 33945 ft | 484 kts | 350° |
| 2026-05-05 15:15 | 45.23865 | 6.76153 | 33964 ft | 483 kts | 349° |
| 2026-05-05 15:15 | 45.30585 | 6.75709 | 33952 ft | 483 kts | 349° |
| 2026-05-05 15:16 | 45.37301 | 6.75257 | 33941 ft | 484 kts | 349° |
| 2026-05-05 15:16 | 45.44083 | 6.75586 | 33944 ft | 497 kts | 5° |
| 2026-05-05 15:17 | 45.50681 | 6.78815 | 33933 ft | 509 kts | 25° |
| 2026-05-05 15:17 | 45.56828 | 6.83915 | 33933 ft | 512 kts | 27° |
| 2026-05-05 15:18 | 45.62982 | 6.89014 | 33961 ft | 512 kts | 27° |
| 2026-05-05 15:18 | 45.69138 | 6.94116 | 33961 ft | 511 kts | 27° |
| 2026-05-05 15:19 | 45.75272 | 6.99242 | 33972 ft | 511 kts | 27° |
| 2026-05-05 15:19 | 45.81349 | 7.04352 | 33987 ft | 509 kts | 28° |
| 2026-05-05 15:20 | 45.87443 | 7.09471 | 33979 ft | 507 kts | 27° |
| 2026-05-05 15:20 | 45.93528 | 7.14581 | 33935 ft | 507 kts | 27° |
| 2026-05-05 15:21 | 45.99614 | 7.19718 | 33929 ft | 508 kts | 28° |
| 2026-05-05 15:21 | 46.05705 | 7.24886 | 33920 ft | 508 kts | 28° |
| 2026-05-05 15:22 | 46.10768 | 7.29185 | 33928 ft | 509 kts | 28° |
| 2026-05-05 15:22 | 46.16868 | 7.34382 | 33944 ft | 509 kts | 28° |
| 2026-05-05 15:23 | 46.23932 | 7.40422 | 33943 ft | 507 kts | 28° |
| 2026-05-05 15:23 | 46.29024 | 7.44768 | 33945 ft | 507 kts | 28° |
| 2026-05-05 15:24 | 46.35091 | 7.49976 | 33948 ft | 506 kts | 29° |
| 2026-05-05 15:24 | 46.41117 | 7.55177 | 33931 ft | 503 kts | 29° |
| 2026-05-05 15:25 | 46.47121 | 7.60371 | 33938 ft | 502 kts | 29° |
| 2026-05-05 15:25 | 46.53064 | 7.65508 | 33925 ft | 500 kts | 29° |
| 2026-05-05 15:26 | 46.59036 | 7.70680 | 33912 ft | 499 kts | 29° |
| 2026-05-05 15:26 | 46.65087 | 7.75590 | 33903 ft | 497 kts | 25° |
| 2026-05-05 15:27 | 46.71247 | 7.80158 | 33896 ft | 496 kts | 25° |
| 2026-05-05 15:27 | 46.77395 | 7.84727 | 33897 ft | 495 kts | 25° |
| 2026-05-05 15:28 | 46.83488 | 7.89421 | 33894 ft | 495 kts | 26° |
| 2026-05-05 15:28 | 46.89564 | 7.94170 | 33890 ft | 495 kts | 26° |
| 2026-05-05 15:29 | 46.95630 | 7.98889 | 33900 ft | 493 kts | 26° |
| 2026-05-05 15:29 | 47.01680 | 8.03586 | 33893 ft | 491 kts | 26° |
| 2026-05-05 15:30 | 47.07708 | 8.08272 | 33894 ft | 490 kts | 26° |
| 2026-05-05 15:30 | 47.13713 | 8.12969 | 33896 ft | 488 kts | 27° |
| 2026-05-05 15:31 | 47.19693 | 8.17653 | 33891 ft | 486 kts | 27° |
| 2026-05-05 15:31 | 47.25652 | 8.22330 | 33882 ft | 485 kts | 27° |
| 2026-05-05 15:32 | 47.31593 | 8.27008 | 33888 ft | 484 kts | 27° |
| 2026-05-05 15:32 | 47.37473 | 8.31650 | 33884 ft | 482 kts | 28° |
| 2026-05-05 15:33 | 47.43388 | 8.36328 | 33863 ft | 483 kts | 27° |
| 2026-05-05 15:33 | 47.49313 | 8.41020 | 33863 ft | 484 kts | 27° |
| 2026-05-05 15:34 | 47.55239 | 8.45727 | 33883 ft | 483 kts | 28° |
| 2026-05-05 15:34 | 47.61145 | 8.50451 | 33888 ft | 482 kts | 28° |
| 2026-05-05 15:35 | 47.67045 | 8.55185 | 33885 ft | 482 kts | 28° |
| 2026-05-05 15:35 | 47.72971 | 8.59937 | 33889 ft | 480 kts | 28° |
| 2026-05-05 15:36 | 47.78808 | 8.64604 | 33887 ft | 479 kts | 28° |
| 2026-05-05 15:36 | 47.84662 | 8.69308 | 33882 ft | 478 kts | 28° |
| 2026-05-05 15:37 | 47.90496 | 8.74020 | 33872 ft | 477 kts | 29° |
| 2026-05-05 15:37 | 47.96318 | 8.78711 | 33884 ft | 475 kts | 29° |
| 2026-05-05 15:38 | 48.02113 | 8.83420 | 33881 ft | 474 kts | 29° |
| 2026-05-05 15:38 | 48.07886 | 8.88143 | 33878 ft | 473 kts | 29° |
| 2026-05-05 15:39 | 48.13664 | 8.92829 | 33880 ft | 472 kts | 27° |
| 2026-05-05 15:39 | 48.16700 | 8.94661 | 33743 ft | 471 kts | 18° |
| 2026-05-05 15:39 | 48.19877 | 8.95789 | 33283 ft | 467 kts | 8° |
| 2026-05-05 15:39 | 48.23089 | 8.96304 | 32787 ft | 462 kts | 5° |
| 2026-05-05 15:40 | 48.26278 | 8.96761 | 32286 ft | 458 kts | 6° |
| 2026-05-05 15:40 | 48.29438 | 8.97227 | 31798 ft | 454 kts | 6° |
| 2026-05-05 15:40 | 48.32566 | 8.97698 | 31301 ft | 450 kts | 6° |
| 2026-05-05 15:40 | 48.35667 | 8.98174 | 30821 ft | 445 kts | 6° |
| 2026-05-05 15:41 | 48.38734 | 8.98650 | 30334 ft | 442 kts | 6° |
| 2026-05-05 15:41 | 48.41782 | 8.99127 | 29839 ft | 439 kts | 7° |
| 2026-05-05 15:41 | 48.44807 | 8.99600 | 29332 ft | 434 kts | 7° |
| 2026-05-05 15:41 | 48.47790 | 9.00064 | 28874 ft | 428 kts | 6° |
| 2026-05-05 15:42 | 48.50735 | 9.00516 | 28420 ft | 423 kts | 6° |
| 2026-05-05 15:42 | 48.53650 | 9.00960 | 27961 ft | 418 kts | 6° |
| 2026-05-05 15:42 | 48.56528 | 9.01396 | 27526 ft | 413 kts | 6° |
| 2026-05-05 15:42 | 48.59370 | 9.01824 | 27100 ft | 409 kts | 6° |
| 2026-05-05 15:43 | 48.62186 | 9.02251 | 26681 ft | 404 kts | 6° |
| 2026-05-05 15:43 | 48.64960 | 9.02740 | 26277 ft | 399 kts | 8° |
| 2026-05-05 15:43 | 48.67694 | 9.03342 | 25875 ft | 395 kts | 9° |
| 2026-05-05 15:43 | 48.70390 | 9.04010 | 25484 ft | 390 kts | 10° |
| 2026-05-05 15:44 | 48.73052 | 9.04701 | 25099 ft | 386 kts | 10° |
| 2026-05-05 15:44 | 48.75680 | 9.05379 | 24716 ft | 381 kts | 10° |
| 2026-05-05 15:44 | 48.78285 | 9.06033 | 24350 ft | 377 kts | 10° |
| 2026-05-05 15:44 | 48.80864 | 9.06661 | 23974 ft | 374 kts | 9° |
| 2026-05-05 15:45 | 48.83431 | 9.07274 | 23596 ft | 372 kts | 9° |
| 2026-05-05 15:45 | 48.85977 | 9.07879 | 23176 ft | 370 kts | 9° |
| 2026-05-05 15:45 | 48.88509 | 9.08474 | 22785 ft | 367 kts | 8° |
| 2026-05-05 15:45 | 48.91044 | 9.08953 | 22380 ft | 365 kts | 6° |
| 2026-05-05 15:46 | 48.93567 | 9.09324 | 21995 ft | 363 kts | 5° |
| 2026-05-05 15:46 | 48.96077 | 9.09645 | 21598 ft | 362 kts | 5° |
| 2026-05-05 15:46 | 48.98582 | 9.09955 | 21200 ft | 360 kts | 5° |
| 2026-05-05 15:46 | 49.01070 | 9.10271 | 20799 ft | 358 kts | 5° |
| 2026-05-05 15:47 | 49.03543 | 9.10597 | 20356 ft | 370 kts | 5° |
| 2026-05-05 15:47 | 49.05292 | 9.10837 | 20038 ft | 375 kts | 5° |
| 2026-05-05 15:47 | 49.08738 | 9.11324 | 19415 ft | 375 kts | 5° |
| 2026-05-05 15:47 | 49.11326 | 9.11700 | 18945 ft | 373 kts | 5° |
| 2026-05-05 15:48 | 49.13900 | 9.12072 | 18485 ft | 370 kts | 5° |
| 2026-05-05 15:48 | 49.16458 | 9.12437 | 18007 ft | 368 kts | 4° |
| 2026-05-05 15:48 | 49.18997 | 9.12798 | 17522 ft | 365 kts | 4° |
| 2026-05-05 15:48 | 49.21519 | 9.13158 | 17067 ft | 362 kts | 5° |
| 2026-05-05 15:49 | 49.24048 | 9.13522 | 16613 ft | 359 kts | 5° |
| 2026-05-05 15:49 | 49.26497 | 9.13876 | 16170 ft | 357 kts | 4° |
| 2026-05-05 15:49 | 49.28948 | 9.14348 | 15724 ft | 355 kts | 11° |
| 2026-05-05 15:49 | 49.31351 | 9.15191 | 15232 ft | 353 kts | 12° |
| 2026-05-05 15:50 | 49.33734 | 9.16037 | 14747 ft | 351 kts | 12° |
| 2026-05-05 15:50 | 49.36110 | 9.16875 | 14255 ft | 350 kts | 12° |
| 2026-05-05 15:50 | 49.38477 | 9.17713 | 13793 ft | 348 kts | 13° |
| 2026-05-05 15:50 | 49.40832 | 9.18550 | 13274 ft | 347 kts | 13° |
| 2026-05-05 15:51 | 49.43171 | 9.19383 | 12799 ft | 344 kts | 13° |
| 2026-05-05 15:51 | 49.45495 | 9.20212 | 12322 ft | 341 kts | 13° |
| 2026-05-05 15:51 | 49.47796 | 9.21029 | 11853 ft | 338 kts | 13° |
| 2026-05-05 15:51 | 49.50080 | 9.21841 | 11392 ft | 336 kts | 13° |
| 2026-05-05 15:52 | 49.52345 | 9.22647 | 10936 ft | 333 kts | 12° |
| 2026-05-05 15:52 | 49.54584 | 9.23432 | 10657 ft | 325 kts | 13° |
| 2026-05-05 15:52 | 49.56743 | 9.24199 | 10542 ft | 312 kts | 13° |
| 2026-05-05 15:52 | 49.58828 | 9.24950 | 10346 ft | 304 kts | 12° |
| 2026-05-05 15:53 | 49.60898 | 9.25695 | 10264 ft | 307 kts | 14° |
| 2026-05-05 15:53 | 49.62976 | 9.26449 | 10135 ft | 306 kts | 14° |
| 2026-05-05 15:53 | 49.65051 | 9.27199 | 10013 ft | 306 kts | 14° |
| 2026-05-05 15:53 | 49.67120 | 9.27944 | 9883 ft | 306 kts | 14° |
| 2026-05-05 15:54 | 49.69193 | 9.28690 | 9831 ft | 305 kts | 14° |
| 2026-05-05 15:54 | 49.71264 | 9.29434 | 9838 ft | 307 kts | 14° |
| 2026-05-05 15:54 | 49.73340 | 9.30181 | 9838 ft | 305 kts | 13° |
| 2026-05-05 15:54 | 49.75414 | 9.30907 | 9845 ft | 306 kts | 10° |
| 2026-05-05 15:55 | 49.77536 | 9.30987 | 9780 ft | 307 kts | 356° |
| 2026-05-05 15:55 | 49.79657 | 9.30716 | 9517 ft | 305 kts | 354° |
| 2026-05-05 15:55 | 49.81762 | 9.30423 | 9252 ft | 303 kts | 354° |
| 2026-05-05 15:55 | 49.83855 | 9.30122 | 8991 ft | 300 kts | 354° |
| 2026-05-05 15:56 | 49.85923 | 9.29804 | 8729 ft | 297 kts | 354° |
| 2026-05-05 15:56 | 49.87977 | 9.29488 | 8467 ft | 297 kts | 354° |
| 2026-05-05 15:56 | 49.90027 | 9.29187 | 8191 ft | 295 kts | 354° |
| 2026-05-05 15:56 | 49.92062 | 9.28884 | 7813 ft | 292 kts | 354° |
| 2026-05-05 15:57 | 49.94078 | 9.28591 | 7411 ft | 290 kts | 354° |
| 2026-05-05 15:57 | 49.96081 | 9.28307 | 7020 ft | 288 kts | 354° |
| 2026-05-05 15:57 | 49.98069 | 9.28032 | 6614 ft | 286 kts | 354° |
| 2026-05-05 15:57 | 50.00047 | 9.27765 | 6249 ft | 284 kts | 354° |
| 2026-05-05 15:58 | 50.02009 | 9.27501 | 5929 ft | 282 kts | 354° |
| 2026-05-05 15:58 | 50.03955 | 9.27196 | 5772 ft | 281 kts | 353° |
| 2026-05-05 15:58 | 50.05893 | 9.26896 | 5496 ft | 280 kts | 354° |
| 2026-05-05 15:58 | 50.07798 | 9.26633 | 5252 ft | 277 kts | 354° |
| 2026-05-05 15:59 | 50.09736 | 9.26372 | 5001 ft | 276 kts | 354° |
| 2026-05-05 15:59 | 50.11665 | 9.26103 | 4761 ft | 283 kts | 354° |
| 2026-05-05 15:59 | 50.13665 | 9.25842 | 4555 ft | 292 kts | 354° |
| 2026-05-05 15:59 | 50.15625 | 9.25584 | 4394 ft | 279 kts | 354° |
| 2026-05-05 16:00 | 50.17505 | 9.25314 | 4262 ft | 266 kts | 349° |
| 2026-05-05 16:00 | 50.19160 | 9.24325 | 4134 ft | 248 kts | 320° |
| 2026-05-05 16:00 | 50.20184 | 9.22320 | 4024 ft | 233 kts | 288° |
| 2026-05-05 16:00 | 50.20339 | 9.19884 | 3995 ft | 226 kts | 255° |
| 2026-05-05 16:01 | 50.19834 | 9.17577 | 3990 ft | 225 kts | 245° |
| 2026-05-05 16:01 | 50.19204 | 9.15341 | 3988 ft | 225 kts | 244° |
| 2026-05-05 16:01 | 50.18553 | 9.13114 | 3987 ft | 226 kts | 244° |
| 2026-05-05 16:01 | 50.17901 | 9.10892 | 3987 ft | 226 kts | 244° |
| 2026-05-05 16:02 | 50.17240 | 9.08661 | 3988 ft | 227 kts | 244° |
| 2026-05-05 16:02 | 50.16578 | 9.06430 | 3988 ft | 227 kts | 244° |
| 2026-05-05 16:02 | 50.15922 | 9.04211 | 4001 ft | 223 kts | 244° |
| 2026-05-05 16:02 | 50.15296 | 9.02091 | 3993 ft | 210 kts | 244° |
| 2026-05-05 16:03 | 50.14693 | 9.00034 | 3994 ft | 208 kts | 244° |
| 2026-05-05 16:03 | 50.14096 | 8.97987 | 3995 ft | 207 kts | 244° |
| 2026-05-05 16:03 | 50.13504 | 8.95944 | 3999 ft | 203 kts | 244° |
| 2026-05-05 16:03 | 50.12952 | 8.94032 | 4004 ft | 187 kts | 244° |
| 2026-05-05 16:04 | 50.12429 | 8.92209 | 3999 ft | 183 kts | 244° |
| 2026-05-05 16:04 | 50.11909 | 8.90396 | 3999 ft | 184 kts | 244° |
| 2026-05-05 16:04 | 50.11341 | 8.88617 | 4002 ft | 184 kts | 238° |
| 2026-05-05 16:04 | 50.10755 | 8.86844 | 3998 ft | 184 kts | 244° |
| 2026-05-05 16:05 | 50.10265 | 8.85009 | 3866 ft | 184 kts | 246° |
| 2026-05-05 16:05 | 50.09811 | 8.83151 | 3653 ft | 182 kts | 248° |
| 2026-05-05 16:05 | 50.09371 | 8.81304 | 3429 ft | 182 kts | 248° |
| 2026-05-05 16:05 | 50.08935 | 8.79460 | 3189 ft | 180 kts | 248° |
| 2026-05-05 16:06 | 50.08504 | 8.77636 | 2950 ft | 179 kts | 248° |
| 2026-05-05 16:06 | 50.08080 | 8.75847 | 2718 ft | 179 kts | 249° |
| 2026-05-05 16:06 | 50.07652 | 8.74037 | 2493 ft | 177 kts | 248° |
| 2026-05-05 16:06 | 50.07225 | 8.72228 | 2245 ft | 179 kts | 249° |
| 2026-05-05 16:07 | 50.06806 | 8.70462 | 2011 ft | 168 kts | 249° |
| 2026-05-05 16:07 | 50.06422 | 8.68841 | 1780 ft | 152 kts | 249° |
| 2026-05-05 16:07 | 50.06070 | 8.67352 | 1590 ft | 143 kts | 250° |
| 2026-05-05 16:07 | 50.05731 | 8.65927 | 1394 ft | 138 kts | 249° |
| 2026-05-05 16:08 | 50.05399 | 8.64525 | 1207 ft | 138 kts | 249° |
| 2026-05-05 16:08 | 50.05058 | 8.63099 | 1017 ft | 143 kts | 249° |
| 2026-05-05 16:08 | 50.04709 | 8.61634 | 826 ft | 145 kts | 249° |
| 2026-05-05 16:08 | 50.04365 | 8.60181 | 628 ft | 140 kts | 249° |
| 2026-05-05 16:09 | 50.04038 | 8.58783 | 425 ft | 137 kts | 249° |
| 2026-05-05 16:09 | 50.03724 | 8.57477 | 357 ft | 117 kts | 249° |
| 2026-05-05 16:09 | 50.03499 | 8.56537 | 355 ft | 68 kts | 250° |
| 2026-05-05 16:09 | 50.03380 | 8.56034 | 350 ft | 38 kts | 250° |
| 2026-05-05 16:10 | 50.03325 | 8.55787 | 346 ft | 36 kts | 255° |
| 2026-05-05 16:10 | 50.03320 | 8.55428 | 353 ft | 31 kts | 280° |
| 2026-05-05 16:10 | 50.03349 | 8.55209 | 347 ft | 17 kts | 290° |
| 2026-05-05 16:10 | 50.03431 | 8.55214 | 350 ft | 15 kts | 63° |
| 2026-05-05 16:11 | 50.03468 | 8.55368 | 353 ft | 16 kts | 70° |
| 2026-05-05 16:11 | 50.03617 | 8.55993 | 356 ft | 22 kts | 70° |
| 2026-05-05 16:12 | 50.03670 | 8.56217 | 356 ft | 22 kts | 70° |
| 2026-05-05 16:12 | 50.03785 | 8.56693 | 359 ft | 24 kts | 70° |
| 2026-05-05 16:13 | 50.03957 | 8.57419 | 369 ft | 22 kts | 70° |
| 2026-05-05 16:13 | 50.04012 | 8.57646 | 371 ft | 23 kts | 69° |
| 2026-05-05 16:13 | 50.04067 | 8.57879 | 366 ft | 23 kts | 69° |
| 2026-05-05 16:14 | 50.04185 | 8.58364 | 374 ft | 25 kts | 69° |
| 2026-05-05 16:14 | 50.04306 | 8.58870 | 374 ft | 24 kts | 69° |
| 2026-05-05 16:15 | 50.04413 | 8.59315 | 376 ft | 14 kts | 70° |
| 2026-05-05 16:15 | 50.04551 | 8.59469 | 374 ft | 16 kts | 357° |
| 2026-05-05 16:16 | 50.04794 | 8.59388 | 372 ft | 15 kts | 340° |
| 2026-05-05 16:16 | 50.04837 | 8.59364 | 370 ft | 0 kts | 339° |
| 2026-05-05 16:18 | 50.04862 | 8.59356 | 371 ft | 6 kts | 359° |
| 2026-05-05 16:19 | 50.04918 | 8.59374 | 371 ft | 10 kts | 3° |
| 2026-05-05 16:19 | 50.04996 | 8.59338 | 366 ft | 14 kts | 339° |
| 2026-05-05 16:19 | 50.05056 | 8.59113 | 361 ft | 15 kts | 250° |
| 2026-05-05 16:20 | 50.04986 | 8.58910 | 364 ft | 4 kts | 178° |
| 2026-05-05 16:20 | 50.04946 | 8.58932 | 368 ft | 2 kts | 159° |
| 2026-05-05 16:21 | 50.04929 | 8.58942 | 365 ft | 0 kts | 160° |